sensor_id;sensor_type;location;lat;lon;timestamp;pressure;altitude;pressure_sealevel;temperature;humidity
44044;BME280;29709;52.396;16.796;2023-12-20T00:01:23;100930.90;;;8.38;94.63
44044;BME280;29709;52.396;16.796;2023-12-20T00:12:03;100919.80;;;8.30;94.88
44044;BME280;29709;52.396;16.796;2023-12-20T00:19:14;100913.30;;;8.31;94.79
44044;BME280;29709;52.396;16.796;2023-12-20T00:26:22;100904.68;;;8.36;94.78
44044;BME280;29709;52.396;16.796;2023-12-20T00:29:35;100919.38;;;8.35;94.39
44044;BME280;29709;52.396;16.796;2023-12-20T00:32:49;100906.56;;;8.35;94.55
44044;BME280;29709;52.396;16.796;2023-12-20T00:36:03;100908.28;;;8.36;94.74
44044;BME280;29709;52.396;16.796;2023-12-20T00:39:17;100906.41;;;8.37;94.78
44044;BME280;29709;52.396;16.796;2023-12-20T00:42:30;100904.84;;;8.34;94.28
44044;BME280;29709;52.396;16.796;2023-12-20T00:49:25;100905.08;;;8.31;94.66
44044;BME280;29709;52.396;16.796;2023-12-20T00:52:39;100897.88;;;8.30;94.36
44044;BME280;29709;52.396;16.796;2023-12-20T00:55:52;100898.20;;;8.27;95.11
44044;BME280;29709;52.396;16.796;2023-12-20T00:59:06;100900.47;;;8.32;94.65
44044;BME280;29709;52.396;16.796;2023-12-20T01:02:19;100900.63;;;8.30;94.19
44044;BME280;29709;52.396;16.796;2023-12-20T01:05:32;100890.85;;;8.28;94.60
44044;BME280;29709;52.396;16.796;2023-12-20T01:08:46;100894.45;;;8.28;94.59
44044;BME280;29709;52.396;16.796;2023-12-20T01:11:59;100853.62;;;8.07;94.42
44044;BME280;29709;52.396;16.796;2023-12-20T01:18:33;100890.30;;;8.24;94.67
44044;BME280;29709;52.396;16.796;2023-12-20T01:21:46;100890.30;;;8.24;94.29
44044;BME280;29709;52.396;16.796;2023-12-20T01:25:00;100886.98;;;8.21;94.58
44044;BME280;29709;52.396;16.796;2023-12-20T01:28:13;100892.61;;;8.19;94.53
44044;BME280;29709;52.396;16.796;2023-12-20T01:31:27;100886.58;;;8.16;94.52
44044;BME280;29709;52.396;16.796;2023-12-20T01:34:46;100880.09;;;8.17;94.96
44044;BME280;29709;52.396;16.796;2023-12-20T01:38:01;100866.95;;;8.20;94.89
44044;BME280;29709;52.396;16.796;2023-12-20T01:41:14;100861.19;;;8.23;94.40
44044;BME280;29709;52.396;16.796;2023-12-20T01:44:30;100854.28;;;8.19;94.29
44044;BME280;29709;52.396;16.796;2023-12-20T01:47:43;100850.99;;;8.16;94.44
44044;BME280;29709;52.396;16.796;2023-12-20T01:50:56;100858.77;;;8.10;94.07
44044;BME280;29709;52.396;16.796;2023-12-20T01:54:10;100849.15;;;8.06;94.19
44044;BME280;29709;52.396;16.796;2023-12-20T01:57:23;100847.28;;;8.07;94.67
44044;BME280;29709;52.396;16.796;2023-12-20T02:00:38;100846.00;;;8.01;94.24
44044;BME280;29709;52.396;16.796;2023-12-20T02:03:52;100852.80;;;7.97;94.99
44044;BME280;29709;52.396;16.796;2023-12-20T02:07:07;100841.85;;;7.97;94.82
44044;BME280;29709;52.396;16.796;2023-12-20T02:10:20;100838.65;;;8.02;94.88
44044;BME280;29709;52.396;16.796;2023-12-20T02:13:33;100831.02;;;8.05;94.94
44044;BME280;29709;52.396;16.796;2023-12-20T02:16:47;100835.31;;;8.08;94.49
44044;BME280;29709;52.396;16.796;2023-12-20T02:20:00;100836.17;;;8.08;94.99
44044;BME280;29709;52.396;16.796;2023-12-20T02:23:18;100832.27;;;8.11;94.62
44044;BME280;29709;52.396;16.796;2023-12-20T02:30:17;100828.28;;;8.05;94.52
44044;BME280;29709;52.396;16.796;2023-12-20T02:33:31;100825.85;;;8.02;94.52
44044;BME280;29709;52.396;16.796;2023-12-20T02:36:47;100822.53;;;7.99;94.71
44044;BME280;29709;52.396;16.796;2023-12-20T02:40:00;100817.92;;;7.99;94.67
44044;BME280;29709;52.396;16.796;2023-12-20T02:43:13;100809.00;;;7.97;94.92
44044;BME280;29709;52.396;16.796;2023-12-20T02:46:35;100815.34;;;7.98;94.35
44044;BME280;29709;52.396;16.796;2023-12-20T02:49:49;100810.33;;;7.93;94.67
44044;BME280;29709;52.396;16.796;2023-12-20T02:53:03;100809.59;;;7.91;94.40
44044;BME280;29709;52.396;16.796;2023-12-20T02:56:17;100817.96;;;7.90;94.58
44044;BME280;29709;52.396;16.796;2023-12-20T02:59:32;100824.29;;;7.90;94.93
44044;BME280;29709;52.396;16.796;2023-12-20T03:02:45;100817.68;;;7.93;94.93
44044;BME280;29709;52.396;16.796;2023-12-20T03:05:59;100811.04;;;7.95;94.60
44044;BME280;29709;52.396;16.796;2023-12-20T03:09:12;100811.20;;;7.94;94.34
44044;BME280;29709;52.396;16.796;2023-12-20T03:12:26;100815.22;;;7.90;94.64
44044;BME280;29709;52.396;16.796;2023-12-20T03:15:40;100808.19;;;7.87;94.49
44044;BME280;29709;52.396;16.796;2023-12-20T03:18:53;100794.11;;;7.82;94.64
44044;BME280;29709;52.396;16.796;2023-12-20T03:22:07;100798.84;;;7.80;94.60
44044;BME280;29709;52.396;16.796;2023-12-20T03:25:22;100794.23;;;7.80;95.39
44044;BME280;29709;52.396;16.796;2023-12-20T03:28:38;100792.23;;;7.83;94.58
44044;BME280;29709;52.396;16.796;2023-12-20T03:31:51;100791.11;;;7.75;95.31
44044;BME280;29709;52.396;16.796;2023-12-20T03:35:04;100792.67;;;7.78;95.27
44044;BME280;29709;52.396;16.796;2023-12-20T03:38:18;100789.93;;;7.78;94.95
44044;BME280;29709;52.396;16.796;2023-12-20T03:41:32;100795.09;;;7.81;95.10
44044;BME280;29709;52.396;16.796;2023-12-20T03:44:46;100797.98;;;7.79;95.17
44044;BME280;29709;52.396;16.796;2023-12-20T03:47:59;100791.49;;;7.80;94.91
44044;BME280;29709;52.396;16.796;2023-12-20T03:51:12;100799.59;;;7.82;94.93
44044;BME280;29709;52.396;16.796;2023-12-20T03:54:25;100790.64;;;7.80;94.62
44044;BME280;29709;52.396;16.796;2023-12-20T03:57:39;100784.15;;;7.81;94.78
44044;BME280;29709;52.396;16.796;2023-12-20T04:00:52;100785.59;;;7.85;95.00
44044;BME280;29709;52.396;16.796;2023-12-20T04:04:06;100781.99;;;7.85;94.51
44044;BME280;29709;52.396;16.796;2023-12-20T04:07:19;100787.31;;;7.86;95.13
44044;BME280;29709;52.396;16.796;2023-12-20T04:10:32;100792.79;;;7.86;94.50
44044;BME280;29709;52.396;16.796;2023-12-20T04:13:45;100785.33;;;7.78;95.05
44044;BME280;29709;52.396;16.796;2023-12-20T04:16:58;100781.02;;;7.76;94.88
44044;BME280;29709;52.396;16.796;2023-12-20T04:20:12;100790.40;;;7.73;95.17
44044;BME280;29709;52.396;16.796;2023-12-20T04:23:25;100785.94;;;7.72;95.31
44044;BME280;29709;52.396;16.796;2023-12-20T04:26:38;100785.94;;;7.72;95.14
44044;BME280;29709;52.396;16.796;2023-12-20T04:29:51;100784.77;;;7.75;95.40
44044;BME280;29709;52.396;16.796;2023-12-20T04:33:04;100779.14;;;7.76;95.28
44044;BME280;29709;52.396;16.796;2023-12-20T04:36:17;100775.55;;;7.76;95.13
44044;BME280;29709;52.396;16.796;2023-12-20T04:39:31;100770.78;;;7.78;95.21
44044;BME280;29709;52.396;16.796;2023-12-20T04:42:44;100773.21;;;7.81;94.86
44044;BME280;29709;52.396;16.796;2023-12-20T04:45:57;100769.06;;;7.77;95.15
44044;BME280;29709;52.396;16.796;2023-12-20T04:49:10;100774.84;;;7.74;95.53
44044;BME280;29709;52.396;16.796;2023-12-20T04:52:26;100765.62;;;7.75;94.99
44044;BME280;29709;52.396;16.796;2023-12-20T04:55:39;100766.48;;;7.75;95.07
44044;BME280;29709;52.396;16.796;2023-12-20T04:58:53;100777.42;;;7.75;95.17
44044;BME280;29709;52.396;16.796;2023-12-20T05:02:06;100779.30;;;7.75;95.11
44044;BME280;29709;52.396;16.796;2023-12-20T05:05:20;100776.02;;;7.71;95.22
44044;BME280;29709;52.396;16.796;2023-12-20T05:08:34;100783.21;;;7.72;95.49
44044;BME280;29709;52.396;16.796;2023-12-20T05:11:47;100785.48;;;7.77;95.46
44044;BME280;29709;52.396;16.796;2023-12-20T05:15:00;100779.85;;;7.78;95.17
44044;BME280;29709;52.396;16.796;2023-12-20T05:18:13;100779.14;;;7.76;94.95
44044;BME280;29709;52.396;16.796;2023-12-20T05:21:27;100776.88;;;7.72;94.92
44044;BME280;29709;52.396;16.796;2023-12-20T05:24:40;100785.36;;;7.69;95.09
44044;BME280;29709;52.396;16.796;2023-12-20T05:27:53;100790.59;;;7.62;95.58
44044;BME280;29709;52.396;16.796;2023-12-20T05:31:06;100773.87;;;7.65;95.63
44044;BME280;29709;52.396;16.796;2023-12-20T05:34:19;100777.86;;;7.71;95.99
44044;BME280;29709;52.396;16.796;2023-12-20T05:37:33;100777.58;;;7.74;95.25
44044;BME280;29709;52.396;16.796;2023-12-20T05:40:46;100768.66;;;7.72;95.18
44044;BME280;29709;52.396;16.796;2023-12-20T05:44:00;100765.07;;;7.71;95.24
44044;BME280;29709;52.396;16.796;2023-12-20T05:47:13;100772.00;;;7.66;95.61
44044;BME280;29709;52.396;16.796;2023-12-20T05:50:27;100778.02;;;7.69;95.48
44044;BME280;29709;52.396;16.796;2023-12-20T05:53:40;100771.41;;;7.72;95.18
44044;BME280;29709;52.396;16.796;2023-12-20T05:56:53;100771.95;;;7.75;94.98
44044;BME280;29709;52.396;16.796;2023-12-20T06:00:07;100776.10;;;7.79;95.20
44044;BME280;29709;52.396;16.796;2023-12-20T06:03:20;100778.68;;;7.81;94.90
44044;BME280;29709;52.396;16.796;2023-12-20T06:06:33;100775.40;;;7.77;94.78
44044;BME280;29709;52.396;16.796;2023-12-20T06:09:47;100771.80;;;7.77;94.63
44044;BME280;29709;52.396;16.796;2023-12-20T06:13:00;100759.30;;;7.74;94.46
44044;BME280;29709;52.396;16.796;2023-12-20T06:16:14;100768.20;;;7.76;94.71
44044;BME280;29709;52.396;16.796;2023-12-20T06:19:28;100763.44;;;7.78;94.62
44044;BME280;29709;52.396;16.796;2023-12-20T06:22:41;100758.12;;;7.77;94.18
44044;BME280;29709;52.396;16.796;2023-12-20T06:25:54;100771.95;;;7.75;94.31
44044;BME280;29709;52.396;16.796;2023-12-20T06:29:09;100774.84;;;7.74;94.61
44044;BME280;29709;52.396;16.796;2023-12-20T06:32:22;100780.48;;;7.72;93.68
44044;BME280;29709;52.396;16.796;2023-12-20T06:35:37;100780.91;;;7.68;94.31
44044;BME280;29709;52.396;16.796;2023-12-20T06:38:50;100779.03;;;7.68;93.98
44044;BME280;29709;52.396;16.796;2023-12-20T06:42:04;100788.55;;;7.64;93.90
44044;BME280;29709;52.396;16.796;2023-12-20T06:45:17;100791.60;;;7.61;94.26
44044;BME280;29709;52.396;16.796;2023-12-20T06:48:30;100774.30;;;7.61;94.23
44044;BME280;29709;52.396;16.796;2023-12-20T06:51:45;100780.94;;;7.58;94.17
44044;BME280;29709;52.396;16.796;2023-12-20T06:54:58;100790.63;;;7.52;94.20
44044;BME280;29709;52.396;16.796;2023-12-20T06:58:11;100796.95;;;7.53;94.12
44044;BME280;29709;52.396;16.796;2023-12-20T07:01:24;100803.28;;;7.53;94.18
44044;BME280;29709;52.396;16.796;2023-12-20T07:04:41;100808.44;;;7.57;93.88
44044;BME280;29709;52.396;16.796;2023-12-20T07:07:54;100803.83;;;7.57;93.99
44044;BME280;29709;52.396;16.796;2023-12-20T07:11:07;100813.48;;;7.61;93.66
44044;BME280;29709;52.396;16.796;2023-12-20T07:14:21;100821.39;;;7.64;93.71
44044;BME280;29709;52.396;16.796;2023-12-20T07:17:34;100826.86;;;7.64;93.14
44044;BME280;29709;52.396;16.796;2023-12-20T07:20:47;100835.06;;;7.64;93.47
44044;BME280;29709;52.396;16.796;2023-12-20T07:24:01;100832.48;;;7.63;93.54
44044;BME280;29709;52.396;16.796;2023-12-20T07:27:14;100834.91;;;7.66;93.63
44044;BME280;29709;52.396;16.796;2023-12-20T07:30:28;100836.32;;;7.70;93.70
44044;BME280;29709;52.396;16.796;2023-12-20T07:33:41;100840.66;;;7.72;93.69
44044;BME280;29709;52.396;16.796;2023-12-20T07:36:54;100836.76;;;7.75;93.46
44044;BME280;29709;52.396;16.796;2023-12-20T07:40:08;100837.62;;;7.75;93.03
44044;BME280;29709;52.396;16.796;2023-12-20T07:43:21;100842.38;;;7.73;93.16
44044;BME280;29709;52.396;16.796;2023-12-20T07:46:34;100845.12;;;7.73;93.37
44044;BME280;29709;52.396;16.796;2023-12-20T07:49:48;100834.72;;;7.77;93.65
44044;BME280;29709;52.396;16.796;2023-12-20T07:53:03;100834.57;;;7.78;93.58
44044;BME280;29709;52.396;16.796;2023-12-20T07:56:18;100833.55;;;7.79;92.90
44044;BME280;29709;52.396;16.796;2023-12-20T07:59:33;100823.08;;;7.75;92.90
44044;BME280;29709;52.396;16.796;2023-12-20T08:02:47;100828.42;;;7.67;92.79
44044;BME280;29709;52.396;16.796;2023-12-20T08:06:00;100820.09;;;7.59;92.89
44044;BME280;29709;52.396;16.796;2023-12-20T08:09:14;100823.13;;;7.56;93.11
44044;BME280;29709;52.396;16.796;2023-12-20T08:12:28;100818.83;;;7.53;93.04
44044;BME280;29709;52.396;16.796;2023-12-20T08:15:41;100810.04;;;7.49;92.81
44044;BME280;29709;52.396;16.796;2023-12-20T08:18:55;100804.01;;;7.46;92.78
44044;BME280;29709;52.396;16.796;2023-12-20T08:25:29;100808.49;;;7.37;92.43
44044;BME280;29709;52.396;16.796;2023-12-20T08:28:42;100807.23;;;7.32;92.10
44044;BME280;29709;52.396;16.796;2023-12-20T08:31:56;100813.97;;;7.28;92.49
44044;BME280;29709;52.396;16.796;2023-12-20T08:35:09;100811.98;;;7.30;92.59
44044;BME280;29709;52.396;16.796;2023-12-20T08:38:22;100814.98;;;7.36;92.86
44044;BME280;29709;52.396;16.796;2023-12-20T08:41:37;100816.12;;;7.43;93.01
44044;BME280;29709;52.396;16.796;2023-12-20T08:44:50;100824.02;;;7.46;92.52
44044;BME280;29709;52.396;16.796;2023-12-20T08:48:04;100810.51;;;7.45;92.62
44044;BME280;29709;52.396;16.796;2023-12-20T08:51:17;100815.81;;;7.46;92.07
44044;BME280;29709;52.396;16.796;2023-12-20T08:54:30;100817.99;;;7.43;92.08
44044;BME280;29709;52.396;16.796;2023-12-20T08:57:45;100822.16;;;7.37;91.96
44044;BME280;29709;52.396;16.796;2023-12-20T09:00:58;100818.88;;;7.34;92.09
44044;BME280;29709;52.396;16.796;2023-12-20T09:04:11;100818.31;;;7.30;91.81
44044;BME280;29709;52.396;16.796;2023-12-20T09:07:25;100812.23;;;7.36;91.52
44044;BME280;29709;52.396;16.796;2023-12-20T09:10:40;100818.27;;;7.40;91.92
44044;BME280;29709;52.396;16.796;2023-12-20T09:13:53;100813.23;;;7.45;91.00
44044;BME280;29709;52.396;16.796;2023-12-20T09:17:07;100811.51;;;7.44;90.35
44044;BME280;29709;52.396;16.796;2023-12-20T09:20:25;100809.76;;;7.52;90.14
44044;BME280;29709;52.396;16.796;2023-12-20T09:25:07;100809.73;;;7.62;89.94
44044;BME280;29709;52.396;16.796;2023-12-20T09:28:21;100798.02;;;7.70;89.97
44044;BME280;29709;52.396;16.796;2023-12-20T09:31:36;100800.33;;;7.74;89.85
44044;BME280;29709;52.396;16.796;2023-12-20T09:34:50;100808.89;;;7.89;90.22
44044;BME280;29709;52.396;16.796;2023-12-20T09:38:03;100810.56;;;8.00;89.47
44044;BME280;29709;52.396;16.796;2023-12-20T09:41:17;100805.95;;;8.00;89.33
44044;BME280;29709;52.396;16.796;2023-12-20T09:44:32;100805.95;;;8.00;88.14
44044;BME280;29709;52.396;16.796;2023-12-20T09:47:50;100796.97;;;7.80;88.62
44044;BME280;29709;52.396;16.796;2023-12-20T09:51:05;100800.72;;;7.79;89.41
44044;BME280;29709;52.396;16.796;2023-12-20T09:54:18;100795.02;;;7.73;89.10
44044;BME280;29709;52.396;16.796;2023-12-20T09:57:32;100777.16;;;7.69;89.22
44044;BME280;29709;52.396;16.796;2023-12-20T10:00:49;100782.77;;;7.67;89.27
44044;BME280;29709;52.396;16.796;2023-12-20T10:04:10;100758.00;;;7.69;89.52
44044;BME280;29709;52.396;16.796;2023-12-20T10:07:27;100761.20;;;7.64;88.96
44044;BME280;29709;52.396;16.796;2023-12-20T10:10:40;100751.83;;;7.67;88.57
44044;BME280;29709;52.396;16.796;2023-12-20T10:14:01;100739.01;;;7.67;88.63
44044;BME280;29709;52.396;16.796;2023-12-20T10:17:15;100730.96;;;7.66;88.55
44044;BME280;29709;52.396;16.796;2023-12-20T10:20:29;100730.96;;;7.66;88.37
44044;BME280;29709;52.396;16.796;2023-12-20T10:23:43;100727.68;;;7.62;88.84
44044;BME280;29709;52.396;16.796;2023-12-20T10:27:03;100736.01;;;7.61;88.13
44044;BME280;29709;52.396;16.796;2023-12-20T10:30:17;100729.44;;;7.53;87.96
44044;BME280;29709;52.396;16.796;2023-12-20T10:33:31;100729.44;;;7.53;87.92
44044;BME280;29709;52.396;16.796;2023-12-20T10:36:47;100725.27;;;7.49;87.99
44044;BME280;29709;52.396;16.796;2023-12-20T10:40:03;100712.17;;;7.53;87.75
44044;BME280;29709;52.396;16.796;2023-12-20T10:43:18;100712.45;;;7.50;87.46
44044;BME280;29709;52.396;16.796;2023-12-20T10:46:33;100714.63;;;7.46;87.38
44044;BME280;29709;52.396;16.796;2023-12-20T10:49:47;100712.45;;;7.50;87.68
44044;BME280;29709;52.396;16.796;2023-12-20T10:53:01;100702.41;;;7.50;86.96
44044;BME280;29709;52.396;16.796;2023-12-20T10:56:17;100698.07;;;7.48;87.09
44044;BME280;29709;52.396;16.796;2023-12-20T10:59:39;100703.10;;;7.52;87.04
44044;BME280;29709;52.396;16.796;2023-12-20T11:02:53;100693.18;;;7.51;86.89
44044;BME280;29709;52.396;16.796;2023-12-20T11:06:19;100693.14;;;7.61;87.31
44044;BME280;29709;52.396;16.796;2023-12-20T11:09:40;100693.14;;;7.61;86.94
44044;BME280;29709;52.396;16.796;2023-12-20T11:13:02;100689.82;;;7.58;86.90
44044;BME280;29709;52.396;16.796;2023-12-20T11:16:17;100681.23;;;7.52;86.66
44044;BME280;29709;52.396;16.796;2023-12-20T11:19:30;100677.33;;;7.55;86.91
44044;BME280;29709;52.396;16.796;2023-12-20T11:22:53;100665.41;;;7.46;87.21
44044;BME280;29709;52.396;16.796;2023-12-20T11:26:06;100660.65;;;7.48;87.31
44044;BME280;29709;52.396;16.796;2023-12-20T11:29:29;100658.93;;;7.47;87.11
44044;BME280;29709;52.396;16.796;2023-12-20T11:32:46;100650.34;;;7.42;87.43
44044;BME280;29709;52.396;16.796;2023-12-20T11:36:00;100647.45;;;7.44;87.66
44044;BME280;29709;52.396;16.796;2023-12-20T11:39:20;100647.76;;;7.41;88.08
44044;BME280;29709;52.396;16.796;2023-12-20T11:42:38;100642.57;;;7.38;87.81
44044;BME280;29709;52.396;16.796;2023-12-20T11:45:52;100636.13;;;7.29;88.58
44044;BME280;29709;52.396;16.796;2023-12-20T11:49:06;100634.57;;;7.27;88.62
44044;BME280;29709;52.396;16.796;2023-12-20T11:52:19;100636.48;;;7.16;88.90
44044;BME280;29709;52.396;16.796;2023-12-20T11:55:33;100635.48;;;7.17;88.73
44044;BME280;29709;52.396;16.796;2023-12-20T11:58:47;100624.54;;;7.17;89.15
44044;BME280;29709;52.396;16.796;2023-12-20T12:02:02;100628.87;;;7.20;89.27
44044;BME280;29709;52.396;16.796;2023-12-20T12:05:16;100618.80;;;7.20;89.20
44044;BME280;29709;52.396;16.796;2023-12-20T12:08:29;100616.34;;;7.17;89.25
44044;BME280;29709;52.396;16.796;2023-12-20T12:11:43;100596.19;;;7.18;90.01
44044;BME280;29709;52.396;16.796;2023-12-20T12:14:56;100599.66;;;7.20;89.37
44044;BME280;29709;52.396;16.796;2023-12-20T12:18:11;100601.54;;;7.20;88.90
44044;BME280;29709;52.396;16.796;2023-12-20T12:21:25;100601.66;;;7.18;89.01
44044;BME280;29709;52.396;16.796;2023-12-20T12:24:46;100588.58;;;7.22;88.39
44044;BME280;29709;52.396;16.796;2023-12-20T12:27:59;100591.74;;;7.17;88.67
44044;BME280;29709;52.396;16.796;2023-12-20T12:31:14;100567.60;;;7.13;88.45
44044;BME280;29709;52.396;16.796;2023-12-20T12:34:30;100561.59;;;7.09;88.34
44044;BME280;29709;52.396;16.796;2023-12-20T12:37:44;100559.25;;;7.14;88.56
44044;BME280;29709;52.396;16.796;2023-12-20T12:40:57;100562.54;;;7.18;88.35
44044;BME280;29709;52.396;16.796;2023-12-20T12:44:11;100564.36;;;7.27;88.25
44044;BME280;29709;52.396;16.796;2023-12-20T12:47:25;100560.06;;;7.24;87.93
44044;BME280;29709;52.396;16.796;2023-12-20T12:50:39;100563.49;;;7.27;87.27
44044;BME280;29709;52.396;16.796;2023-12-20T12:53:53;100555.30;;;7.27;87.04
44044;BME280;29709;52.396;16.796;2023-12-20T12:57:06;100544.84;;;7.22;87.10
44044;BME280;29709;52.396;16.796;2023-12-20T13:00:19;100548.12;;;7.26;87.34
44044;BME280;29709;52.396;16.796;2023-12-20T13:03:32;100552.27;;;7.30;87.18
44044;BME280;29709;52.396;16.796;2023-12-20T13:06:46;100556.41;;;7.34;86.95
44044;BME280;29709;52.396;16.796;2023-12-20T13:10:00;100532.41;;;7.28;86.69
44044;BME280;29709;52.396;16.796;2023-12-20T13:13:13;100537.12;;;7.35;86.37
44044;BME280;29709;52.396;16.796;2023-12-20T13:16:26;100520.16;;;7.32;86.43
44044;BME280;29709;52.396;16.796;2023-12-20T13:19:39;100509.40;;;7.30;86.09
44044;BME280;29709;52.396;16.796;2023-12-20T13:22:54;100511.49;;;7.36;86.17
44044;BME280;29709;52.396;16.796;2023-12-20T13:26:07;100497.66;;;7.38;85.47
44044;BME280;29709;52.396;16.796;2023-12-20T13:29:20;100500.56;;;7.36;85.40
44044;BME280;29709;52.396;16.796;2023-12-20T13:32:34;100497.50;;;7.39;85.05
44044;BME280;29709;52.396;16.796;2023-12-20T13:35:47;100497.22;;;7.42;85.05
44044;BME280;29709;52.396;16.796;2023-12-20T13:39:00;100495.34;;;7.43;85.04
44044;BME280;29709;52.396;16.796;2023-12-20T13:42:16;100500.66;;;7.44;84.58
44044;BME280;29709;52.396;16.796;2023-12-20T13:45:30;100488.60;;;7.37;84.16
44044;BME280;29709;52.396;16.796;2023-12-20T13:48:43;100463.63;;;7.32;84.14
44044;BME280;29709;52.396;16.796;2023-12-20T13:51:57;100471.26;;;7.29;84.00
44044;BME280;29709;52.396;16.796;2023-12-20T13:55:11;100473.86;;;7.30;84.46
44044;BME280;29709;52.396;16.796;2023-12-20T13:58:24;100476.59;;;7.30;84.54
44044;BME280;29709;52.396;16.796;2023-12-20T14:01:38;100468.93;;;7.34;84.31
44044;BME280;29709;52.396;16.796;2023-12-20T14:04:51;100466.20;;;7.34;84.46
44044;BME280;29709;52.396;16.796;2023-12-20T14:08:05;100455.27;;;7.34;84.32
44044;BME280;29709;52.396;16.796;2023-12-20T14:11:18;100457.84;;;7.35;84.10
44044;BME280;29709;52.396;16.796;2023-12-20T14:14:32;100451.99;;;7.30;83.50
44044;BME280;29709;52.396;16.796;2023-12-20T14:17:45;100449.79;;;7.34;83.99
44044;BME280;29709;52.396;16.796;2023-12-20T14:20:59;100454.78;;;7.38;83.91
44044;BME280;29709;52.396;16.796;2023-12-20T14:24:13;100442.70;;;7.41;83.24
44044;BME280;29709;52.396;16.796;2023-12-20T14:27:27;100447.76;;;7.36;83.46
44044;BME280;29709;52.396;16.796;2023-12-20T14:30:41;100444.86;;;7.37;83.35
44044;BME280;29709;52.396;16.796;2023-12-20T14:33:56;100440.09;;;7.39;83.17
44044;BME280;29709;52.396;16.796;2023-12-20T14:37:10;100433.07;;;7.37;82.85
44044;BME280;29709;52.396;16.796;2023-12-20T14:40:24;100430.17;;;7.38;83.27
44044;BME280;29709;52.396;16.796;2023-12-20T14:43:38;100439.40;;;7.37;83.57
44044;BME280;29709;52.396;16.796;2023-12-20T14:46:51;100428.37;;;7.29;83.63
44044;BME280;29709;52.396;16.796;2023-12-20T14:50:08;100429.71;;;7.25;84.12
44044;BME280;29709;52.396;16.796;2023-12-20T14:53:22;100421.14;;;7.20;84.52
44044;BME280;29709;52.396;16.796;2023-12-20T14:56:35;100410.66;;;7.15;84.66
44044;BME280;29709;52.396;16.796;2023-12-20T14:59:48;100413.87;;;7.11;85.16
44044;BME280;29709;52.396;16.796;2023-12-20T15:03:04;100412.15;;;7.10;85.48
44044;BME280;29709;52.396;16.796;2023-12-20T15:06:20;100399.03;;;7.13;85.31
44044;BME280;29709;52.396;16.796;2023-12-20T15:09:33;100398.79;;;7.07;85.58
44044;BME280;29709;52.396;16.796;2023-12-20T15:12:46;100406.13;;;7.06;85.76
44044;BME280;29709;52.396;16.796;2023-12-20T15:16:00;100410.28;;;7.10;85.55
44044;BME280;29709;52.396;16.796;2023-12-20T15:19:13;100391.44;;;7.07;86.04
44044;BME280;29709;52.396;16.796;2023-12-20T15:22:26;100401.84;;;7.04;86.04
44044;BME280;29709;52.396;16.796;2023-12-20T15:25:47;100411.30;;;7.09;85.62
44044;BME280;29709;52.396;16.796;2023-12-20T15:29:00;100426.74;;;7.01;85.17
44044;BME280;29709;52.396;16.796;2023-12-20T15:32:14;100428.59;;;6.82;86.32
44044;BME280;29709;52.396;16.796;2023-12-20T15:35:27;100418.47;;;6.65;87.30
44044;BME280;29709;52.396;16.796;2023-12-20T15:38:40;100408.34;;;6.57;87.78
44044;BME280;29709;52.396;16.796;2023-12-20T15:41:54;100408.07;;;6.51;88.98
44044;BME280;29709;52.396;16.796;2023-12-20T15:45:08;100400.74;;;6.51;89.17
44044;BME280;29709;52.396;16.796;2023-12-20T15:48:21;100397.26;;;6.59;89.48
44044;BME280;29709;52.396;16.796;2023-12-20T15:51:39;100390.02;;;6.68;89.30
44044;BME280;29709;52.396;16.796;2023-12-20T15:54:52;100387.20;;;6.77;88.75
44044;BME280;29709;52.396;16.796;2023-12-20T15:58:06;100391.05;;;6.84;89.15
44044;BME280;29709;52.396;16.796;2023-12-20T16:01:19;100392.76;;;6.85;88.90
44044;BME280;29709;52.396;16.796;2023-12-20T16:04:32;100408.98;;;6.87;89.21
44044;BME280;29709;52.396;16.796;2023-12-20T16:07:47;100476.08;;;6.72;88.61
44044;BME280;29709;52.396;16.796;2023-12-20T16:11:00;100489.91;;;6.23;85.57
44044;BME280;29709;52.396;16.796;2023-12-20T16:14:14;100462.02;;;5.63;85.59
44044;BME280;29709;52.396;16.796;2023-12-20T16:17:33;100433.05;;;5.33;86.78
44044;BME280;29709;52.396;16.796;2023-12-20T16:20:49;100426.45;;;5.16;87.44
44044;BME280;29709;52.396;16.796;2023-12-20T16:24:02;100419.84;;;5.09;87.36
44044;BME280;29709;52.396;16.796;2023-12-20T16:27:16;100412.52;;;5.00;87.45
44044;BME280;29709;52.396;16.796;2023-12-20T16:30:29;100426.41;;;4.87;88.21
44044;BME280;29709;52.396;16.796;2023-12-20T16:33:47;100427.14;;;4.80;87.82
44044;BME280;29709;52.396;16.796;2023-12-20T16:37:00;100428.40;;;4.76;88.28
44044;BME280;29709;52.396;16.796;2023-12-20T16:40:14;100429.23;;;4.67;88.37
44044;BME280;29709;52.396;16.796;2023-12-20T16:43:28;100419.49;;;4.64;89.28
44044;BME280;29709;52.396;16.796;2023-12-20T16:46:42;100420.06;;;4.68;88.69
44044;BME280;29709;52.396;16.796;2023-12-20T16:49:55;100427.66;;;4.64;89.07
44044;BME280;29709;52.396;16.796;2023-12-20T16:53:09;100447.28;;;4.68;89.13
44044;BME280;29709;52.396;16.796;2023-12-20T16:56:22;100448.03;;;4.70;89.52
44044;BME280;29709;52.396;16.796;2023-12-20T16:59:36;100444.02;;;4.74;89.57
44044;BME280;29709;52.396;16.796;2023-12-20T17:02:49;100456.80;;;4.83;90.29
44044;BME280;29709;52.396;16.796;2023-12-20T17:06:03;100446.50;;;4.96;90.60
44044;BME280;29709;52.396;16.796;2023-12-20T17:09:17;100444.35;;;5.09;91.09
44044;BME280;29709;52.396;16.796;2023-12-20T17:12:30;100447.09;;;5.19;91.66
44044;BME280;29709;52.396;16.796;2023-12-20T17:15:43;100446.23;;;5.28;91.65
44044;BME280;29709;52.396;16.796;2023-12-20T17:18:58;100442.66;;;5.37;91.48
44044;BME280;29709;52.396;16.796;2023-12-20T17:22:11;100437.20;;;5.47;90.98
44044;BME280;29709;52.396;16.796;2023-12-20T17:25:24;100434.34;;;5.48;90.87